createdAt,value
2022-08-19T00:01:29.191Z,20.40
2022-08-19T00:03:59.000Z,20.30
2022-08-19T00:06:27.039Z,20.30
2022-08-19T00:08:53.887Z,20.20
2022-08-19T00:11:25.526Z,20.10
2022-08-19T00:13:53.969Z,20.00
2022-08-19T00:16:25.982Z,19.90
2022-08-19T00:18:57.167Z,19.90
2022-08-19T00:21:25.369Z,19.90
2022-08-19T00:23:52.427Z,19.90
2022-08-19T00:26:19.807Z,19.90
2022-08-19T00:28:47.571Z,19.80
2022-08-19T00:31:14.343Z,19.80
2022-08-19T00:33:41.068Z,19.80
2022-08-19T00:36:10.330Z,19.80
2022-08-19T00:38:40.181Z,19.80
2022-08-19T00:41:07.925Z,19.80
2022-08-19T00:43:34.694Z,19.80
2022-08-19T00:46:05.736Z,19.80
2022-08-19T00:48:34.615Z,19.80
2022-08-19T00:51:02.164Z,19.80
2022-08-19T00:53:32.343Z,19.80
2022-08-19T00:56:01.915Z,19.80
2022-08-19T00:58:33.432Z,19.80
2022-08-19T01:01:02.366Z,19.80
2022-08-19T01:03:29.930Z,19.80
2022-08-19T01:06:19.882Z,19.80
2022-08-19T01:08:49.978Z,19.80
2022-08-19T01:11:17.666Z,19.90
2022-08-19T01:13:50.130Z,19.90
2022-08-19T01:16:18.617Z,19.90
2022-08-19T01:18:45.414Z,19.90
2022-08-19T01:21:29.307Z,19.90
2022-08-19T01:23:56.111Z,19.90
2022-08-19T01:26:25.871Z,19.90
2022-08-19T01:28:57.397Z,19.90
2022-08-19T01:31:33.110Z,19.90
2022-08-19T01:34:01.722Z,20.00
2022-08-19T01:36:48.316Z,20.00
2022-08-19T01:39:20.123Z,20.00
2022-08-19T01:41:47.693Z,20.00
2022-08-19T01:44:18.776Z,19.90
2022-08-19T01:46:48.515Z,19.90
2022-08-19T01:49:16.812Z,19.80
2022-08-19T01:51:43.683Z,19.90
2022-08-19T01:54:12.962Z,19.90
2022-08-19T01:56:39.712Z,19.90
2022-08-19T01:59:13.089Z,19.90
2022-08-19T02:01:39.916Z,19.90
2022-08-19T02:04:06.785Z,20.00
2022-08-19T02:06:35.013Z,20.00
2022-08-19T02:09:03.376Z,20.10
2022-08-19T02:11:34.317Z,20.00
2022-08-19T02:14:03.809Z,19.90
2022-08-19T02:16:31.614Z,19.80
2022-08-19T02:19:01.396Z,19.80
2022-08-19T02:21:29.918Z,19.90
2022-08-19T02:23:57.192Z,19.80
2022-08-19T02:26:24.472Z,19.80
2022-08-19T02:28:51.326Z,19.80
2022-08-19T02:31:21.805Z,19.80
2022-08-19T02:33:49.117Z,19.80
2022-08-19T02:36:20.683Z,19.80
2022-08-19T02:38:54.733Z,19.80
2022-08-19T02:41:33.459Z,19.60
2022-08-19T02:44:30.529Z,19.60
2022-08-19T02:46:51.798Z,19.60
2022-08-19T02:49:19.487Z,19.60
2022-08-19T02:51:47.223Z,19.70
2022-08-19T02:54:15.171Z,19.70
2022-08-19T02:56:43.600Z,19.60
2022-08-19T02:59:12.545Z,19.70
2022-08-19T03:01:42.065Z,19.70
2022-08-19T03:04:11.749Z,19.80
2022-08-19T03:06:40.901Z,19.80
2022-08-19T03:09:08.100Z,19.70
2022-08-19T03:11:35.423Z,19.80
2022-08-19T03:14:03.838Z,19.80
2022-08-19T03:16:33.855Z,19.80
2022-08-19T03:19:01.635Z,19.80
2022-08-19T03:21:33.840Z,19.70
2022-08-19T03:24:03.842Z,19.80
2022-08-19T03:26:31.142Z,19.80
2022-08-19T03:29:05.550Z,19.80
2022-08-19T03:31:45.251Z,19.80
2022-08-19T03:34:29.222Z,19.90
2022-08-19T03:36:58.410Z,19.90
2022-08-19T03:39:26.777Z,19.80
2022-08-19T03:42:32.951Z,19.90
2022-08-19T03:44:45.526Z,19.90
2022-08-19T03:47:16.804Z,19.80
2022-08-19T03:49:44.120Z,19.90
2022-08-19T03:52:11.185Z,19.90
2022-08-19T03:54:39.398Z,20.00
2022-08-19T03:57:06.930Z,20.00
2022-08-19T03:59:36.238Z,20.00
2022-08-19T04:02:09.868Z,19.90
2022-08-19T04:04:38.358Z,19.90
2022-08-19T04:07:05.521Z,19.90
2022-08-19T04:09:33.918Z,19.90
2022-08-19T04:12:00.863Z,19.80
2022-08-19T04:14:31.279Z,19.80
2022-08-19T04:17:00.111Z,19.80
2022-08-19T04:19:27.913Z,19.90
2022-08-19T04:21:55.548Z,19.90
2022-08-19T04:24:23.502Z,20.00
2022-08-19T04:26:50.888Z,19.90
2022-08-19T04:29:25.814Z,19.90
2022-08-19T04:31:54.579Z,19.90
2022-08-19T04:34:23.533Z,19.90
2022-08-19T04:36:52.112Z,19.80
2022-08-19T04:39:22.954Z,19.80
2022-08-19T04:42:08.501Z,19.80
2022-08-19T04:44:44.987Z,19.90
2022-08-19T04:47:13.472Z,19.90
2022-08-19T04:49:40.204Z,19.90
2022-08-19T04:52:07.043Z,19.90
2022-08-19T04:54:37.701Z,19.80
2022-08-19T04:57:08.408Z,19.80
2022-08-19T04:59:36.757Z,19.80
2022-08-19T05:02:04.278Z,19.80
2022-08-19T05:04:32.838Z,19.80
2022-08-19T05:07:01.893Z,19.90
2022-08-19T05:09:33.094Z,20.00
2022-08-19T05:12:16.938Z,20.00
2022-08-19T05:14:46.460Z,20.10
2022-08-19T05:17:32.356Z,20.00
2022-08-19T05:20:19.432Z,20.00
2022-08-19T05:22:47.778Z,20.00
2022-08-19T05:25:20.438Z,20.00
2022-08-19T05:27:47.767Z,20.10
2022-08-19T05:30:15.629Z,20.10
2022-08-19T05:32:43.284Z,20.10
2022-08-19T05:35:12.406Z,20.10
2022-08-19T05:37:41.180Z,20.20
2022-08-19T05:40:10.939Z,20.30
2022-08-19T05:42:38.442Z,20.20
2022-08-19T05:45:05.712Z,20.10
2022-08-19T05:47:33.139Z,20.20
2022-08-19T05:50:00.258Z,20.30
2022-08-19T05:52:28.098Z,20.30
2022-08-19T05:54:56.546Z,20.30
2022-08-19T05:57:25.041Z,20.30
2022-08-19T05:59:53.044Z,20.40
2022-08-19T06:02:28.653Z,20.40
2022-08-19T06:04:55.662Z,20.50
2022-08-19T06:07:22.701Z,20.50
2022-08-19T06:10:00.620Z,20.50
2022-08-19T06:12:36.473Z,20.60
2022-08-19T06:15:07.359Z,20.70
2022-08-19T06:17:35.766Z,20.60
2022-08-19T06:20:08.066Z,20.70
2022-08-19T06:22:39.645Z,20.60
2022-08-19T06:25:07.358Z,20.60
2022-08-19T06:27:34.706Z,20.60
2022-08-19T06:30:02.110Z,20.70
2022-08-19T06:32:29.695Z,20.80
2022-08-19T06:34:56.434Z,20.80
2022-08-19T06:37:23.537Z,20.90
2022-08-19T06:39:51.060Z,21.10
2022-08-19T06:42:19.466Z,21.20
2022-08-19T06:44:50.238Z,21.20
2022-08-19T06:47:23.744Z,21.20
2022-08-19T06:49:54.993Z,21.30
2022-08-19T06:52:27.842Z,21.30
2022-08-19T06:54:56.911Z,21.30
2022-08-19T06:57:27.356Z,21.30
2022-08-19T06:59:54.361Z,21.30
2022-08-19T07:02:21.528Z,21.30
2022-08-19T07:04:48.810Z,21.30
2022-08-19T07:07:21.739Z,21.30
2022-08-19T07:09:57.940Z,21.20
2022-08-19T07:12:33.849Z,21.20
2022-08-19T07:15:03.539Z,21.10
2022-08-19T07:17:30.553Z,21.10
2022-08-19T07:19:57.905Z,21.10
2022-08-19T07:22:33.573Z,21.10
2022-08-19T07:25:01.115Z,21.10
2022-08-19T07:27:27.857Z,21.20
2022-08-19T07:29:56.298Z,21.30
2022-08-19T07:32:27.570Z,21.30
2022-08-19T07:34:55.095Z,21.30
2022-08-19T07:37:24.322Z,21.30
2022-08-19T07:39:51.580Z,21.20
2022-08-19T07:42:21.875Z,21.30
2022-08-19T07:44:50.293Z,21.30
2022-08-19T07:47:48.779Z,21.40
2022-08-19T07:50:08.494Z,21.30
2022-08-19T07:52:37.172Z,21.30
2022-08-19T07:55:05.755Z,21.30
2022-08-19T07:57:32.693Z,21.40
2022-08-19T08:00:00.047Z,21.30
2022-08-19T08:02:27.027Z,21.40
2022-08-19T08:05:12.431Z,21.40
2022-08-19T08:07:58.757Z,21.40
2022-08-19T08:10:26.022Z,21.40
2022-08-19T08:13:09.910Z,21.40
2022-08-19T08:15:42.929Z,21.30
2022-08-19T08:18:11.911Z,21.30
2022-08-19T08:20:39.914Z,21.40
2022-08-19T08:23:27.857Z,21.30
2022-08-19T08:25:57.873Z,21.40
2022-08-19T08:28:26.333Z,21.40
2022-08-19T08:30:58.251Z,21.40
2022-08-19T08:33:32.819Z,21.40
2022-08-19T08:36:12.200Z,21.40
2022-08-19T08:38:40.580Z,21.50
2022-08-19T08:41:22.761Z,21.50
2022-08-19T08:43:52.988Z,21.60
2022-08-19T08:46:31.256Z,21.60
2022-08-19T08:49:12.940Z,21.60
2022-08-19T08:51:59.701Z,21.70
2022-08-19T08:54:48.872Z,21.80
2022-08-19T08:57:44.124Z,21.90
2022-08-19T09:00:17.823Z,22.20
2022-08-19T09:02:50.901Z,22.40
2022-08-19T09:05:22.014Z,22.70
2022-08-19T09:08:14.929Z,22.80
2022-08-19T09:10:45.175Z,23.00
2022-08-19T09:13:18.470Z,23.00
2022-08-19T09:15:50.268Z,23.20
2022-08-19T09:18:20.173Z,23.30
2022-08-19T09:20:50.471Z,23.20
2022-08-19T09:23:17.681Z,23.10
2022-08-19T09:25:44.531Z,23.10
2022-08-19T09:28:22.243Z,23.20
2022-08-19T09:30:53.042Z,23.40
2022-08-19T09:33:20.800Z,23.60
2022-08-19T09:35:53.064Z,23.60
2022-08-19T09:38:21.430Z,23.60
2022-08-19T09:40:48.498Z,23.70
2022-08-19T09:43:15.419Z,23.60
2022-08-19T09:46:01.219Z,23.80
2022-08-19T09:48:28.293Z,23.90
2022-08-19T09:50:55.274Z,24.20
2022-08-19T09:53:25.287Z,24.30
2022-08-19T09:55:55.646Z,24.40
2022-08-19T09:58:26.636Z,24.30
2022-08-19T10:00:54.726Z,24.10
2022-08-19T10:03:22.098Z,24.10
2022-08-19T10:05:55.484Z,24.30
2022-08-19T10:08:29.270Z,24.30
2022-08-19T10:10:56.875Z,24.10
2022-08-19T10:13:28.047Z,24.10
2022-08-19T10:15:57.517Z,23.90
2022-08-19T10:18:28.411Z,23.80
2022-08-19T10:21:09.520Z,23.70
2022-08-19T10:23:41.494Z,23.80
2022-08-19T10:26:08.806Z,23.80
2022-08-19T10:28:39.773Z,23.80
2022-08-19T10:31:13.567Z,23.90
2022-08-19T10:33:53.831Z,23.80
2022-08-19T10:36:24.545Z,23.80
2022-08-19T10:38:56.690Z,23.90
2022-08-19T10:41:27.143Z,23.90
2022-08-19T10:44:04.037Z,23.90
2022-08-19T10:46:33.540Z,23.80
2022-08-19T10:49:02.466Z,23.70
2022-08-19T10:51:48.790Z,23.60
2022-08-19T10:54:17.014Z,23.50
2022-08-19T10:56:58.135Z,23.50
2022-08-19T10:59:33.829Z,23.50
2022-08-19T11:02:04.749Z,23.50
2022-08-19T11:04:32.875Z,23.50
2022-08-19T11:06:59.834Z,23.50
2022-08-19T11:09:33.990Z,23.80
2022-08-19T11:12:02.965Z,23.90
2022-08-19T11:14:34.268Z,24.10
2022-08-19T11:17:01.864Z,24.40
2022-08-19T11:19:28.794Z,24.70
2022-08-19T11:21:57.799Z,24.70
2022-08-19T11:24:28.434Z,24.50
2022-08-19T11:27:00.963Z,24.40
2022-08-19T11:29:28.778Z,24.30
2022-08-19T11:31:55.863Z,24.10
2022-08-19T11:34:26.277Z,24.00
2022-08-19T11:36:58.883Z,24.00
2022-08-19T11:39:28.640Z,24.00
2022-08-19T11:41:55.808Z,24.00
2022-08-19T11:44:23.036Z,24.10
2022-08-19T11:46:49.861Z,24.00
2022-08-19T11:49:22.324Z,24.10
2022-08-19T11:51:51.623Z,24.10
2022-08-19T11:54:20.652Z,24.20
2022-08-19T11:56:48.751Z,24.10
2022-08-19T11:59:15.945Z,24.00
2022-08-19T12:01:43.683Z,24.00
2022-08-19T12:04:11.626Z,23.90
2022-08-19T12:06:40.406Z,23.90
2022-08-19T12:09:10.226Z,23.90
2022-08-19T12:11:39.127Z,23.90
2022-08-19T12:14:06.035Z,23.90
2022-08-19T12:16:33.675Z,23.90
2022-08-19T12:19:04.908Z,23.90
2022-08-19T12:21:34.149Z,23.90
2022-08-19T12:24:02.882Z,23.90
2022-08-19T12:26:32.286Z,23.80
2022-08-19T12:29:00.433Z,23.80
2022-08-19T12:31:29.263Z,23.80
2022-08-19T12:33:56.499Z,23.60
2022-08-19T12:36:24.236Z,23.50
2022-08-19T12:38:51.820Z,23.40
2022-08-19T12:41:19.798Z,23.40
2022-08-19T12:43:46.609Z,23.40
2022-08-19T12:46:13.731Z,23.40
2022-08-19T12:48:43.543Z,23.50
2022-08-19T12:51:17.535Z,23.50
2022-08-19T12:53:44.901Z,23.50
2022-08-19T12:56:13.740Z,23.50
2022-08-19T12:58:42.689Z,23.40
2022-08-19T13:01:22.980Z,23.30
2022-08-19T13:03:51.066Z,23.30
2022-08-19T13:06:19.056Z,23.20
2022-08-19T13:08:47.097Z,23.00
2022-08-19T13:11:16.171Z,22.90
2022-08-19T13:13:48.581Z,22.70
2022-08-19T13:16:15.951Z,22.30
2022-08-19T13:18:48.226Z,22.10
2022-08-19T13:21:15.716Z,22.10
2022-08-19T13:23:43.035Z,22.10
2022-08-19T13:26:11.489Z,22.00
2022-08-19T13:28:56.775Z,22.00
2022-08-19T13:31:47.777Z,21.90
2022-08-19T13:34:15.415Z,21.80
2022-08-19T13:36:42.722Z,21.50
2022-08-19T13:39:10.213Z,21.40
2022-08-19T13:41:37.922Z,21.30
2022-08-19T13:44:07.274Z,21.30
2022-08-19T13:46:34.205Z,21.20
2022-08-19T13:49:01.061Z,21.10
2022-08-19T13:51:28.195Z,21.00
2022-08-19T13:53:56.256Z,21.00
2022-08-19T13:56:26.321Z,21.00
2022-08-19T13:58:54.274Z,21.00
2022-08-19T14:01:25.023Z,21.00
2022-08-19T14:03:52.322Z,20.80
2022-08-19T14:06:19.814Z,20.80
2022-08-19T14:08:47.216Z,20.80
2022-08-19T14:11:14.462Z,20.70
2022-08-19T14:13:41.557Z,20.70
2022-08-19T14:16:13.073Z,20.60
2022-08-19T14:18:40.559Z,20.70
2022-08-19T14:21:08.874Z,20.70
2022-08-19T14:23:37.090Z,20.70
2022-08-19T14:26:10.218Z,20.70
2022-08-19T14:28:37.202Z,20.60
2022-08-19T14:31:04.187Z,20.50
2022-08-19T14:33:30.997Z,20.30
2022-08-19T14:35:59.767Z,20.20
2022-08-19T14:38:31.304Z,20.00
2022-08-19T14:41:28.525Z,19.90
2022-08-19T14:43:55.782Z,20.00
2022-08-19T14:46:26.210Z,20.20
2022-08-19T14:48:56.210Z,20.40
2022-08-19T14:51:27.420Z,20.40
2022-08-19T14:53:54.729Z,20.60
2022-08-19T14:56:25.110Z,20.70
2022-08-19T14:58:52.692Z,20.90
2022-08-19T15:01:22.220Z,20.90
2022-08-19T15:03:50.372Z,20.80
2022-08-19T15:06:17.171Z,20.80
2022-08-19T15:08:45.753Z,20.80
2022-08-19T15:11:16.564Z,20.90
2022-08-19T15:13:45.114Z,20.90
2022-08-19T15:16:18.238Z,21.00
2022-08-19T15:18:46.713Z,21.20
2022-08-19T15:21:16.577Z,21.40
2022-08-19T15:23:55.097Z,21.60
2022-08-19T15:26:22.345Z,21.70
2022-08-19T15:28:49.299Z,21.60
2022-08-19T15:31:25.471Z,21.60
2022-08-19T15:33:58.452Z,21.60
2022-08-19T15:36:27.061Z,21.50
2022-08-19T15:38:54.199Z,21.50
2022-08-19T15:41:24.687Z,21.50
2022-08-19T15:43:59.718Z,21.40
2022-08-19T15:46:28.950Z,21.40
2022-08-19T15:49:00.225Z,21.20
2022-08-19T15:51:30.533Z,21.10
2022-08-19T15:53:59.419Z,20.90
2022-08-19T15:56:27.489Z,20.80
2022-08-19T15:59:13.068Z,20.70
2022-08-19T16:01:58.482Z,20.60
2022-08-19T16:04:43.733Z,20.60
2022-08-19T16:07:12.557Z,20.70
2022-08-19T16:09:39.316Z,20.70
2022-08-19T16:12:06.410Z,20.70
2022-08-19T16:14:35.612Z,20.70
2022-08-19T16:17:02.890Z,20.70
2022-08-19T16:19:30.026Z,20.60
2022-08-19T16:21:57.273Z,20.60
2022-08-19T16:24:26.811Z,20.60
2022-08-19T16:26:54.517Z,20.60
2022-08-19T16:29:34.877Z,20.60
2022-08-19T16:32:10.581Z,20.80
2022-08-19T16:34:38.791Z,21.00
2022-08-19T16:37:05.655Z,21.30
2022-08-19T16:39:32.575Z,21.50
2022-08-19T16:41:59.847Z,21.90
2022-08-19T16:44:29.589Z,22.30
2022-08-19T16:46:59.779Z,22.50
2022-08-19T16:49:53.241Z,22.70
2022-08-19T16:52:16.618Z,22.50
2022-08-19T16:54:44.632Z,22.30
2022-08-19T16:57:12.486Z,22.10
2022-08-19T16:59:43.786Z,21.60
2022-08-19T17:02:17.431Z,21.60
2022-08-19T17:04:44.311Z,21.40
2022-08-19T17:07:24.232Z,21.30
2022-08-19T17:09:51.090Z,21.10
2022-08-19T17:12:17.887Z,21.00
2022-08-19T17:14:46.045Z,21.00
2022-08-19T17:17:13.145Z,20.90
2022-08-19T17:19:41.807Z,20.90
2022-08-19T17:22:10.191Z,20.80
2022-08-19T17:24:38.644Z,20.70
2022-08-19T17:27:08.960Z,20.60
2022-08-19T17:29:35.816Z,20.50
2022-08-19T17:32:02.885Z,20.50
2022-08-19T17:34:29.741Z,20.40
2022-08-19T17:36:56.919Z,20.40
2022-08-19T17:39:24.140Z,20.30
2022-08-19T17:41:51.189Z,20.30
2022-08-19T17:44:18.811Z,20.20
2022-08-19T17:46:46.630Z,20.10
2022-08-19T17:49:13.993Z,20.10
2022-08-19T17:51:44.931Z,20.10
2022-08-19T17:54:15.506Z,20.00
2022-08-19T17:56:43.529Z,20.00
2022-08-19T17:59:13.691Z,20.00
2022-08-19T18:01:52.130Z,20.00
2022-08-19T18:04:22.233Z,20.00
2022-08-19T18:06:53.169Z,20.00
2022-08-19T18:09:38.618Z,20.00
2022-08-19T18:12:13.854Z,20.00
2022-08-19T18:14:41.724Z,19.90
2022-08-19T18:17:12.363Z,20.00
2022-08-19T18:19:42.741Z,19.90
2022-08-19T18:22:12.975Z,19.90
2022-08-19T18:24:41.794Z,19.90
2022-08-19T18:27:09.982Z,19.80
2022-08-19T18:29:38.156Z,19.80
2022-08-19T18:32:06.924Z,19.80
2022-08-19T18:34:36.754Z,19.80
2022-08-19T18:37:03.608Z,19.70
2022-08-19T18:39:49.431Z,19.70
2022-08-19T18:42:36.779Z,19.70
2022-08-19T18:45:24.716Z,19.70
2022-08-19T18:48:23.997Z,19.60
2022-08-19T18:50:58.786Z,19.60
2022-08-19T18:53:28.228Z,19.50
2022-08-19T18:55:55.615Z,19.50
2022-08-19T18:58:34.102Z,19.50
2022-08-19T19:01:12.529Z,19.50
2022-08-19T19:03:52.787Z,19.40
2022-08-19T19:06:25.732Z,19.40
2022-08-19T19:08:54.847Z,19.40
2022-08-19T19:11:31.297Z,19.40
2022-08-19T19:14:01.895Z,19.40
2022-08-19T19:16:32.606Z,19.30
2022-08-19T19:18:59.514Z,19.40
2022-08-19T19:21:26.493Z,19.40
2022-08-19T19:23:55.443Z,19.40
2022-08-19T19:26:22.992Z,19.30
2022-08-19T19:28:51.318Z,19.40
2022-08-19T19:31:26.713Z,19.30
2022-08-19T19:33:55.682Z,19.30
2022-08-19T19:36:23.308Z,19.30
2022-08-19T19:38:50.278Z,19.30
2022-08-19T19:41:29.844Z,19.20
2022-08-19T19:44:29.221Z,19.20
2022-08-19T19:46:48.114Z,19.20
2022-08-19T19:49:14.913Z,19.20
2022-08-19T19:51:43.347Z,19.20
2022-08-19T19:54:13.824Z,19.30
2022-08-19T19:56:50.264Z,19.20
2022-08-19T19:59:17.709Z,19.20
2022-08-19T20:01:46.285Z,19.20
2022-08-19T20:04:14.441Z,19.20
2022-08-19T20:06:41.525Z,19.20
2022-08-19T20:09:10.395Z,19.30
2022-08-19T20:11:42.427Z,19.20
2022-08-19T20:14:16.576Z,19.30
2022-08-19T20:16:45.950Z,19.30
2022-08-19T20:19:15.351Z,19.30
2022-08-19T20:21:45.439Z,19.30
2022-08-19T20:24:22.461Z,19.30
2022-08-19T20:26:51.554Z,19.20
2022-08-19T20:29:39.043Z,19.20
2022-08-19T20:32:09.159Z,19.20
2022-08-19T20:34:37.085Z,19.10
2022-08-19T20:37:03.994Z,19.10
2022-08-19T20:39:30.895Z,19.10
2022-08-19T20:41:57.649Z,19.20
2022-08-19T20:44:25.375Z,19.20
2022-08-19T20:46:55.585Z,19.20
2022-08-19T20:49:27.405Z,19.20
2022-08-19T20:51:55.721Z,19.10
2022-08-19T20:54:22.477Z,19.10
2022-08-19T20:56:49.242Z,19.20
2022-08-19T20:59:16.027Z,19.10
2022-08-19T21:01:42.777Z,19.10
2022-08-19T21:04:10.008Z,19.10
2022-08-19T21:06:38.099Z,19.10
2022-08-19T21:09:05.513Z,19.10
2022-08-19T21:11:32.320Z,19.20
2022-08-19T21:13:59.427Z,19.10
2022-08-19T21:16:26.403Z,19.10
2022-08-19T21:18:53.158Z,19.10
2022-08-19T21:21:20.235Z,19.10
2022-08-19T21:23:47.006Z,19.10
2022-08-19T21:26:13.761Z,19.10
2022-08-19T21:28:40.570Z,19.00
2022-08-19T21:31:10.310Z,19.10
2022-08-19T21:33:37.809Z,19.10
2022-08-19T21:36:05.338Z,19.00
2022-08-19T21:38:32.705Z,19.00
2022-08-19T21:41:00.863Z,19.10
2022-08-19T21:43:33.204Z,19.00
2022-08-19T21:45:59.950Z,19.00
2022-08-19T21:48:26.803Z,19.00
2022-08-19T21:50:53.603Z,19.00
2022-08-19T21:53:22.833Z,19.00
2022-08-19T21:55:53.484Z,19.00
2022-08-19T21:58:28.125Z,18.90
2022-08-19T22:00:57.531Z,18.90
2022-08-19T22:03:25.794Z,18.90
2022-08-19T22:05:52.780Z,18.90
2022-08-19T22:08:19.670Z,18.90
2022-08-19T22:10:46.700Z,18.80
2022-08-19T22:13:14.503Z,18.80
2022-08-19T22:15:42.427Z,18.80
2022-08-19T22:18:10.292Z,18.80
2022-08-19T22:20:37.327Z,18.80
2022-08-19T22:23:06.623Z,18.80
2022-08-19T22:25:36.420Z,18.80
2022-08-19T22:28:05.559Z,18.80
2022-08-19T22:30:34.171Z,18.90
2022-08-19T22:33:04.877Z,18.80
2022-08-19T22:35:35.730Z,18.80
2022-08-19T22:38:03.473Z,18.80
2022-08-19T22:40:31.004Z,18.80
2022-08-19T22:43:00.149Z,18.80
2022-08-19T22:45:28.058Z,18.80
2022-08-19T22:47:55.278Z,18.80
2022-08-19T22:50:22.790Z,18.80
2022-08-19T22:52:52.035Z,18.90
2022-08-19T22:55:19.281Z,18.80
2022-08-19T22:57:46.009Z,18.80
2022-08-19T23:00:14.231Z,18.80
2022-08-19T23:02:51.976Z,18.80
2022-08-19T23:05:21.990Z,18.70
2022-08-19T23:07:52.379Z,18.70
2022-08-19T23:10:27.176Z,18.70
2022-08-19T23:12:59.222Z,18.60
2022-08-19T23:15:29.943Z,18.60
2022-08-19T23:18:00.105Z,18.50
2022-08-19T23:20:34.046Z,18.40
2022-08-19T23:23:04.056Z,18.40
2022-08-19T23:25:32.460Z,18.40
2022-08-19T23:28:18.500Z,18.30
2022-08-19T23:30:46.990Z,18.30
2022-08-19T23:33:24.389Z,18.20
2022-08-19T23:35:57.215Z,18.20
2022-08-19T23:38:25.403Z,18.20
2022-08-19T23:40:53.966Z,18.20
2022-08-19T23:43:25.042Z,18.20
2022-08-19T23:45:53.660Z,18.10
2022-08-19T23:48:24.583Z,18.10
2022-08-19T23:50:52.705Z,18.00
2022-08-19T23:53:20.033Z,18.00
2022-08-19T23:55:48.213Z,18.00
2022-08-19T23:58:17.078Z,17.90
